Time;durP1;ratioP1;P1;durP2;ratioP2;P2;SDS_P1;SDS_P2;PMS_P1;PMS_P2;Temp;Humidity;BMP_temperature;BMP_pressure;BME280_temperature;BME280_humidity;BME280_pressure;Samples;Min_cycle;Max_cycle;Signal;HPM_P1;HPM_P2
2021/05/17 00:00:55;;;;;;;12.03;2.00;;;;;;;9.99;69.80;99005.44;125933;1104;23264;-61
2021/05/17 00:03:26;;;;;;;11.43;2.50;;;;;;;9.97;70.00;99007.20;126078;1100;22741;-62
2021/05/17 00:05:57;;;;;;;10.87;2.10;;;;;;;9.94;69.98;99017.33;126036;1104;22914;-63
2021/05/17 00:08:26;;;;;;;10.60;2.30;;;;;;;9.91;70.20;99004.38;126059;1104;22732;-62
2021/05/17 00:10:56;;;;;;;10.15;2.40;;;;;;;9.91;70.33;99015.53;125939;1104;23075;-58
2021/05/17 00:13:27;;;;;;;11.23;2.38;;;;;;;9.91;70.26;99017.58;126152;1104;22769;-60
2021/05/17 00:15:57;;;;;;;12.20;2.45;;;;;;;9.91;70.55;99020.37;126162;1104;22919;-60
2021/05/17 00:18:26;;;;;;;8.20;2.00;;;;;;;9.92;70.90;99014.28;126299;1104;22791;-60
2021/05/17 00:20:57;;;;;;;12.50;1.87;;;;;;;9.92;70.79;99017.07;126172;1100;26248;-60
2021/05/17 00:23:27;;;;;;;12.40;2.00;;;;;;;9.94;70.94;99008.19;126185;1105;22978;-58
2021/05/17 00:25:57;;;;;;;9.10;1.93;;;;;;;9.93;71.39;99007.42;126116;1099;27180;-58
2021/05/17 00:28:27;;;;;;;10.85;2.05;;;;;;;9.92;71.33;99005.92;126141;1104;22764;-60
2021/05/17 00:30:56;;;;;;;10.13;2.08;;;;;;;9.92;71.38;99005.15;125921;1100;22910;-58
2021/05/17 00:33:26;;;;;;;9.87;2.20;;;;;;;9.93;71.44;99001.85;126084;1104;22900;-60
2021/05/17 00:35:56;;;;;;;8.10;2.10;;;;;;;9.96;71.57;98994.51;125995;1104;22754;-61
2021/05/17 00:38:26;;;;;;;10.53;2.15;;;;;;;10.00;71.54;98993.00;126766;1104;22741;-62
2021/05/17 00:40:54;;;;;;;;;;;;;;;10.01;71.77;98997.33;126633;1105;25526;-62
2021/05/17 00:43:31;;;;;;;8.10;2.00;;;;;;;10.01;71.83;98994.54;125973;1105;21533;-61
2021/05/17 00:46:01;;;;;;;11.03;2.50;;;;;;;9.98;71.58;98992.75;125966;1104;22846;-61
2021/05/17 00:48:31;;;;;;;9.27;2.30;;;;;;;9.98;71.53;98995.53;126091;1104;22791;-62
2021/05/17 00:51:00;;;;;;;12.10;2.55;;;;;;;9.98;71.76;98991.98;126121;1099;27166;-61
2021/05/17 00:53:30;;;;;;;13.27;2.87;;;;;;;9.93;71.80;98989.96;126230;1104;22748;-61
2021/05/17 00:56:02;;;;;;;12.23;2.23;;;;;;;9.92;71.67;98980.06;126014;1104;22765;-61
2021/05/17 00:58:33;;;;;;;11.40;2.63;;;;;;;9.91;71.70;98996.02;126129;1104;22748;-61
2021/05/17 01:01:03;;;;;;;12.33;2.80;;;;;;;9.86;72.02;98999.58;126094;1104;22916;-62
2021/05/17 01:03:33;;;;;;;10.07;2.20;;;;;;;9.86;71.87;99002.36;126280;1098;25841;-61
2021/05/17 01:06:04;;;;;;;9.83;2.47;;;;;;;9.85;72.05;98995.25;126061;1104;22761;-59
2021/05/17 01:08:41;;;;;;;9.60;2.30;;;;;;;9.85;72.32;98998.04;126333;1104;22875;-60
2021/05/17 01:11:11;;;;;;;10.63;2.07;;;;;;;9.85;72.50;99008.45;126041;1104;22891;-61
2021/05/17 01:13:42;;;;;;;;;;;;;;;9.86;72.65;99010.73;126045;1104;22770;-61
2021/05/17 01:16:12;;;;;;;11.75;2.28;;;;;;;9.87;72.73;99015.02;126118;1104;23919;-61
2021/05/17 01:18:40;;;;;;;;;;;;;;;9.90;72.76;99011.23;126227;1105;22747;-61
2021/05/17 01:21:10;;;;;;;13.30;2.47;;;;;;;9.89;72.82;99015.28;125947;1104;21477;-61
2021/05/17 01:23:46;;;;;;;12.28;2.50;;;;;;;9.92;72.92;99013.52;126211;1100;23051;-61
2021/05/17 01:26:17;;;;;;;12.90;2.90;;;;;;;9.93;73.02;99010.21;126077;1104;22758;-61
2021/05/17 01:28:46;;;;;;;14.45;2.60;;;;;;;9.97;73.14;99009.98;126141;1104;22786;-61
2021/05/17 01:31:15;;;;;;;13.93;2.57;;;;;;;9.98;73.00;99006.69;126114;1104;22936;-62
2021/05/17 01:33:46;;;;;;;7.55;2.00;;;;;;;10.00;73.24;99009.73;126138;1104;22744;-60
2021/05/17 01:36:16;;;;;;;13.67;2.93;;;;;;;10.03;73.24;99013.55;126135;1104;22920;-61
2021/05/17 01:38:47;;;;;;;11.03;2.63;;;;;;;10.02;73.30;99020.38;126134;1100;22996;-61
2021/05/17 01:41:18;;;;;;;8.83;2.50;;;;;;;10.01;73.38;99013.28;126070;1104;23535;-61
2021/05/17 01:43:48;;;;;;;12.10;2.65;;;;;;;10.00;73.51;99012.52;126191;1100;25789;-59
2021/05/17 01:46:20;;;;;;;11.88;2.50;;;;;;;10.01;73.25;99007.71;125999;1104;22778;-61
2021/05/17 01:48:49;;;;;;;8.07;1.77;;;;;;;10.01;73.28;99008.48;126195;1104;22740;-61
2021/05/17 01:51:20;;;;;;;12.20;2.10;;;;;;;10.05;73.44;99011.02;126115;1105;22762;-60
2021/05/17 01:53:50;;;;;;;8.95;1.63;;;;;;;10.06;73.54;99010.50;126000;1105;22761;-61
2021/05/17 01:56:22;;;;;;;9.78;1.40;;;;;;;10.08;73.62;99009.98;126089;1099;26305;-61
2021/05/17 01:58:51;;;;;;;7.05;1.05;;;;;;;10.12;73.61;99008.50;126109;1100;24174;-62
2021/05/17 02:01:20;;;;;;;4.57;1.03;;;;;;;10.15;73.45;99015.88;126019;1100;22812;-61
2021/05/17 02:03:51;;;;;;;3.60;0.80;;;;;;;10.19;73.70;99013.59;126142;1104;22741;-61
2021/05/17 02:06:21;;;;;;;7.67;1.20;;;;;;;10.23;73.71;99010.55;126063;1104;22741;-61
2021/05/17 02:08:52;;;;;;;3.13;0.70;;;;;;;10.28;73.77;99004.95;126081;1105;22755;-63
2021/05/17 02:11:22;;;;;;;6.35;0.90;;;;;;;10.32;73.74;98999.14;126107;1099;25758;-60
2021/05/17 02:13:51;;;;;;;4.87;0.93;;;;;;;10.34;73.61;98996.61;126102;1100;26442;-60
2021/05/17 02:16:21;;;;;;;6.37;0.63;;;;;;;10.37;73.79;98993.56;126133;1105;22699;-59
2021/05/17 02:18:54;;;;;;;3.95;0.80;;;;;;;10.40;73.84;99000.16;126109;1100;25742;-63
2021/05/17 02:21:24;;;;;;;4.20;0.80;;;;;;;10.41;73.83;99010.03;126025;1104;22769;-62
2021/05/17 02:23:54;;;;;;;3.68;0.60;;;;;;;10.42;73.78;99020.70;126107;1105;22785;-61
2021/05/17 02:26:23;;;;;;;4.65;1.00;;;;;;;10.44;73.79;99032.13;126094;1104;24436;-61
2021/05/17 02:28:53;;;;;;;4.43;0.80;;;;;;;10.46;74.02;99032.38;126184;1104;22765;-61
2021/05/17 02:31:22;;;;;;;6.35;1.00;;;;;;;10.46;74.16;99031.61;126284;1105;22897;-61
2021/05/17 02:33:51;;;;;;;3.27;0.87;;;;;;;10.47;74.14;99031.09;126266;1104;22749;-62
2021/05/17 02:36:22;;;;;;;6.65;1.20;;;;;;;10.50;74.03;99029.32;126107;1099;22722;-61
2021/05/17 02:38:52;;;;;;;6.25;1.13;;;;;;;10.50;74.31;99021.72;126187;1105;22812;-62
2021/05/17 02:41:24;;;;;;;5.95;1.50;;;;;;;10.51;74.14;99026.02;126087;1104;22757;-59
2021/05/17 02:43:54;;;;;;;6.07;1.73;;;;;;;10.53;74.34;99028.32;125989;1104;22863;-61
2021/05/17 02:46:24;;;;;;;3.53;0.80;;;;;;;10.53;73.95;99033.90;126114;1104;22813;-61
2021/05/17 02:48:54;;;;;;;4.63;0.80;;;;;;;10.55;74.11;99034.16;126035;1100;22737;-62
2021/05/17 02:51:24;;;;;;;5.43;0.83;;;;;;;10.55;74.20;99045.31;126058;1104;22910;-61
2021/05/17 02:54:20;;;;;;;5.60;0.90;;;;;;;10.53;74.33;99047.85;129814;1104;22638;-62
2021/05/17 02:57:10;;;;;;;6.63;0.90;;;;;;;10.52;74.09;99055.45;127907;1104;22711;-60
2021/05/17 03:00:14;;;;;;;5.78;0.80;;;;;;;10.52;74.14;99052.66;126123;1105;22769;-60
2021/05/17 03:03:10;;;;;;;6.13;1.27;;;;;;;10.51;74.21;99056.70;126203;1098;25870;-61
2021/05/17 03:05:41;;;;;;;7.57;1.00;;;;;;;10.48;74.16;99052.16;125778;1107;22811;-61
2021/05/17 03:08:12;;;;;;;7.07;1.00;;;;;;;10.48;74.15;99051.39;125717;1108;23023;-61
2021/05/17 03:10:42;;;;;;;6.65;0.95;;;;;;;10.46;74.05;99053.92;125566;1108;22812;-62
2021/05/17 03:13:13;;;;;;;10.63;1.30;;;;;;;10.42;74.02;99042.26;125636;1108;22812;-60
2021/05/17 03:15:43;;;;;;;6.47;1.17;;;;;;;10.40;74.33;99037.19;125761;1103;23840;-61
2021/05/17 03:18:12;;;;;;;10.93;1.33;;;;;;;10.39;74.28;99026.52;125676;1108;22733;-59
2021/05/17 03:20:41;;;;;;;9.08;1.03;;;;;;;10.36;74.19;99017.16;125621;1103;25710;-59
2021/05/17 03:23:13;;;;;;;7.00;1.00;;;;;;;10.34;74.19;99019.70;125728;1108;22771;-61
2021/05/17 03:25:44;;;;;;;6.93;1.23;;;;;;;10.32;74.27;99013.86;125869;1103;22890;-61
2021/05/17 03:28:15;;;;;;;7.23;0.90;;;;;;;10.31;74.38;99017.14;125814;1108;22947;-59
2021/05/17 03:30:44;;;;;;;5.50;1.10;;;;;;;10.28;74.36;99023.74;125532;1108;22745;-62
2021/05/17 03:33:13;;;;;;;6.83;1.17;;;;;;;10.22;74.35;99020.94;125701;1103;22793;-61
2021/05/17 03:35:42;;;;;;;5.47;0.80;;;;;;;10.18;74.45;99019.69;125568;1108;22771;-60
2021/05/17 03:38:11;;;;;;;3.30;0.60;;;;;;;10.15;74.52;99018.66;125621;1108;22973;-62
2021/05/17 03:40:40;;;;;;;3.97;0.60;;;;;;;10.12;74.52;99021.68;125526;1103;24410;-61
2021/05/17 03:43:10;;;;;;;14.87;5.20;;;;;;;10.10;74.34;99032.55;125699;1105;22751;-61
2021/05/17 03:45:38;;;;;;;10.93;2.55;;;;;;;10.06;74.48;99030.02;126010;1104;22803;-62
2021/05/17 03:48:08;;;;;;;7.30;1.35;;;;;;;10.04;74.53;99029.76;126056;1105;22703;-59
2021/05/17 03:50:36;;;;;;;8.30;1.57;;;;;;;10.02;74.64;99037.88;126149;1104;22714;-60
2021/05/17 03:53:05;;;;;;;9.73;1.50;;;;;;;9.97;74.53;99049.78;126075;1104;22757;-61
2021/05/17 03:55:33;;;;;;;10.80;1.23;;;;;;;9.95;74.63;99049.53;126034;1099;22890;-59
2021/05/17 03:58:02;;;;;;;8.67;1.20;;;;;;;9.95;74.61;99054.34;126049;1099;27339;-62
2021/05/17 04:00:32;;;;;;;6.23;0.90;;;;;;;9.95;74.67;99057.89;125968;1099;22920;-62
2021/05/17 04:03:01;;;;;;;5.90;1.08;;;;;;;9.97;75.10;99062.95;126485;1088;25989;-58
2021/05/17 04:05:35;;;;;;;5.90;1.00;;;;;;;9.98;75.36;99062.45;125507;1104;22734;-59
2021/05/17 04:08:24;;;;;;;7.07;0.67;;;;;;;10.00;75.21;99065.49;125459;1105;22771;-58
2021/05/17 04:13:40;;;;;;;4.67;0.67;;;;;;;10.09;75.17;99068.06;125428;1098;25906;-60
2021/05/17 04:16:09;;;;;;;3.27;0.60;;;;;;;10.17;75.60;99071.13;125475;1104;22742;-58
2021/05/17 04:18:41;;;;;;;3.27;0.47;;;;;;;10.24;75.67;99067.86;125647;1099;25970;-59
2021/05/17 04:21:10;;;;;;;4.13;0.50;;;;;;;10.32;76.03;99069.66;125504;1100;22744;-59
2021/05/17 04:23:42;;;;;;;5.50;0.73;;;;;;;10.40;75.89;99064.33;125483;1104;22750;-60
2021/05/17 04:26:10;;;;;;;5.13;0.80;;;;;;;10.49;75.82;99058.51;125489;1100;27177;-59
2021/05/17 04:28:39;;;;;;;3.37;0.40;;;;;;;10.55;76.26;99067.64;125543;1104;22818;-59
2021/05/17 04:31:07;;;;;;;3.90;0.50;;;;;;;10.61;76.00;99067.63;125451;1104;22850;-59
2021/05/17 04:33:36;;;;;;;4.97;0.50;;;;;;;10.67;76.21;99069.16;125485;1099;26321;-61
2021/05/17 04:36:06;;;;;;;3.80;0.60;;;;;;;10.73;76.07;99080.31;125517;1104;22771;-59
2021/05/17 04:38:34;;;;;;;4.05;0.60;;;;;;;10.81;75.97;99078.53;125487;1104;22847;-59
2021/05/17 04:41:04;;;;;;;3.93;0.60;;;;;;;10.90;76.25;99075.48;125408;1099;22910;-60
2021/05/17 04:43:32;;;;;;;3.90;0.65;;;;;;;11.02;75.98;99082.58;125207;1100;26697;-61
2021/05/17 04:46:01;;;;;;;5.05;0.70;;;;;;;11.15;76.39;99089.14;125493;1099;25848;-60
2021/05/17 04:48:30;;;;;;;4.10;0.70;;;;;;;11.26;76.33;99085.56;125786;1104;25490;-60
2021/05/17 04:50:58;;;;;;;6.87;0.80;;;;;;;11.35;76.36;99083.28;125453;1099;27278;-61
2021/05/17 04:53:27;;;;;;;7.63;0.90;;;;;;;11.47;76.45;99089.58;125958;1098;25879;-62
2021/05/17 04:55:56;;;;;;;3.80;0.70;;;;;;;11.60;76.33;99086.24;125493;1099;26050;-62
2021/05/17 04:58:25;;;;;;;3.70;0.43;;;;;;;11.69;76.17;99086.73;125502;1104;22822;-60
2021/05/17 05:00:54;;;;;;;3.13;0.73;;;;;;;11.77;76.44;99084.91;125501;1105;22931;-61
2021/05/17 05:03:23;;;;;;;3.07;0.50;;;;;;;11.87;76.07;99086.16;125479;1105;22725;-61
2021/05/17 05:05:52;;;;;;;4.00;0.80;;;;;;;11.93;76.30;99083.33;126003;1104;23526;-62
2021/05/17 05:08:21;;;;;;;6.13;0.80;;;;;;;11.99;75.94;99082.03;126194;1105;22830;-60
2021/05/17 05:10:50;;;;;;;5.25;0.85;;;;;;;12.03;75.87;99087.34;125544;1105;22764;-61
2021/05/17 05:13:19;;;;;;;4.20;0.60;;;;;;;12.09;75.73;99086.04;125658;1104;22884;-60
2021/05/17 05:15:52;;;;;;;2.97;0.70;;;;;;;12.19;75.77;99078.86;125511;1098;27696;-60
2021/05/17 05:18:22;;;;;;;2.87;0.50;;;;;;;12.26;75.40;99083.14;125513;1104;22745;-60
2021/05/17 05:20:51;;;;;;;3.33;0.70;;;;;;;12.33;75.81;99088.20;125617;1099;22769;-61
2021/05/17 05:23:21;;;;;;;5.90;0.65;;;;;;;12.41;75.69;99094.76;125362;1099;27588;-62
2021/05/17 05:28:45;;;;;;;2.50;0.40;;;;;;;12.64;75.37;99089.75;125359;1104;22767;-61
2021/05/17 05:31:18;;;;;;;3.10;0.40;;;;;;;12.74;75.41;99090.95;125397;1104;22755;-61
2021/05/17 05:33:47;;;;;;;3.30;0.40;;;;;;;12.85;75.08;99085.23;125596;1104;24862;-62
2021/05/17 05:36:17;;;;;;;3.40;0.50;;;;;;;12.96;74.94;99085.91;125747;1105;24470;-59
2021/05/17 05:38:45;;;;;;;3.18;0.50;;;;;;;13.07;75.03;99087.88;125522;1098;24641;-60
2021/05/17 05:43:04;;;;;;;6.45;0.50;;;;;;;13.31;74.98;99075.91;126077;1090;24377;-60
2021/05/17 05:45:42;;;;;;;4.93;0.60;;;;;;;13.43;74.87;99075.27;125968;1101;22843;-60
2021/05/17 05:48:13;;;;;;;2.27;0.60;;;;;;;13.57;74.31;99071.27;125722;1096;25996;-61
2021/05/17 05:50:46;;;;;;;4.33;0.50;;;;;;;13.63;74.11;99071.99;125926;1096;24375;-61
2021/05/17 05:53:16;;;;;;;2.05;0.40;;;;;;;13.71;73.63;99091.78;125849;1101;22738;-61
2021/05/17 05:55:46;;;;;;;;;;;;;;;13.76;73.71;99083.28;125849;1101;25539;-62
2021/05/17 05:58:17;;;;;;;4.05;0.40;;;;;;;13.84;73.89;99079.89;125984;1101;23319;-62
2021/05/17 06:00:47;;;;;;;2.23;0.60;;;;;;;13.97;74.22;99080.73;125931;1101;22762;-61
2021/05/17 06:03:18;;;;;;;4.63;0.50;;;;;;;14.12;73.94;99080.27;125820;1096;27263;-62
2021/05/17 06:05:49;;;;;;;1.70;0.40;;;;;;;14.20;73.11;99078.38;126061;1101;23509;-62
2021/05/17 06:08:21;;;;;;;2.60;0.30;;;;;;;14.29;72.93;99078.03;125902;1101;22745;-61
2021/05/17 06:10:52;;;;;;;3.37;0.40;;;;;;;14.41;72.79;99066.10;125770;1101;22785;-61
2021/05/17 06:13:24;;;;;;;0.37;0.20;;;;;;;14.50;72.34;99065.69;125928;1096;26831;-61
2021/05/17 06:15:56;;;;;;;4.40;0.50;;;;;;;14.59;72.17;99061.72;125881;1101;22729;-61
2021/05/17 06:18:26;;;;;;;3.35;0.30;;;;;;;14.67;72.34;99056.27;126009;1096;22728;-61
2021/05/17 06:20:57;;;;;;;4.30;0.43;;;;;;;14.71;71.88;99057.44;125946;1096;25954;-61
2021/05/17 06:23:28;;;;;;;1.43;0.23;;;;;;;14.73;71.52;99052.07;125851;1101;22706;-61
2021/05/17 06:26:00;;;;;;;4.70;0.25;;;;;;;14.73;71.44;99048.50;125892;1101;23237;-62
2021/05/17 06:28:31;;;;;;;3.30;0.30;;;;;;;14.75;70.80;99045.91;125832;1101;22749;-61
2021/05/17 06:31:06;;;;;;;2.05;0.30;;;;;;;14.77;70.97;99026.46;125770;1096;22810;-61
2021/05/17 06:33:37;;;;;;;2.80;0.50;;;;;;;14.82;71.23;99042.45;125652;1096;27562;-61
2021/05/17 06:36:12;;;;;;;2.50;0.40;;;;;;;14.88;71.07;99043.88;125782;1101;22752;-62
2021/05/17 06:38:42;;;;;;;2.10;0.30;;;;;;;14.94;71.36;99047.34;125835;1101;22762;-61
2021/05/17 06:41:16;;;;;;;3.85;0.40;;;;;;;15.01;70.21;99046.72;125762;1101;22727;-62
2021/05/17 06:43:47;;;;;;;4.80;0.40;;;;;;;15.06;70.34;99050.73;125784;1096;28388;-61
2021/05/17 06:46:18;;;;;;;2.20;0.30;;;;;;;15.09;70.13;99050.40;125852;1096;26865;-61
2021/05/17 06:48:50;;;;;;;3.80;0.30;;;;;;;15.14;69.77;99043.17;125839;1101;22817;-61
2021/05/17 06:51:20;;;;;;;3.70;0.30;;;;;;;15.15;69.88;99045.43;125864;1101;22803;-62
2021/05/17 06:53:57;;;;;;;2.85;0.30;;;;;;;15.12;69.42;99054.95;125706;1096;25839;-62
2021/05/17 06:56:31;;;;;;;4.20;0.30;;;;;;;15.13;69.83;99045.21;125648;1101;22752;-61
2021/05/17 06:59:02;;;;;;;3.40;0.40;;;;;;;15.16;69.86;99049.00;125604;1101;22719;-62
2021/05/17 07:01:33;;;;;;;1.13;0.30;;;;;;;15.19;69.90;99051.48;125557;1101;22727;-61
2021/05/17 07:04:07;;;;;;;2.90;0.30;;;;;;;15.27;69.42;99065.65;125727;1101;22806;-60
2021/05/17 07:06:41;;;;;;;2.93;0.30;;;;;;;15.36;69.82;99079.30;125857;1101;24387;-60
2021/05/17 07:12:04;;;;;;;0.70;0.20;;;;;;;15.57;69.41;99096.31;125599;1101;22901;-62
2021/05/17 07:14:34;;;;;;;1.80;0.23;;;;;;;15.63;68.75;99089.28;125761;1101;22816;-61
2021/05/17 07:17:06;;;;;;;4.00;0.40;;;;;;;15.65;68.86;99081.06;125812;1096;27042;-61
2021/05/17 07:19:36;;;;;;;1.60;0.20;;;;;;;15.74;69.02;99071.42;125762;1097;27144;-62
2021/05/17 07:24:53;;;;;;;1.50;0.30;;;;;;;15.81;68.44;99053.87;125549;1101;21488;-62
2021/05/17 07:27:26;;;;;;;1.23;0.30;;;;;;;15.84;68.35;99047.93;126047;1102;22812;-62
2021/05/17 07:29:56;;;;;;;1.73;0.30;;;;;;;15.88;68.18;99041.95;125621;1096;24387;-62
2021/05/17 07:32:26;;;;;;;;;;;;;;;15.93;68.48;99036.20;125662;1101;22746;-62
2021/05/17 07:34:56;;;;;;;2.30;0.40;;;;;;;16.03;68.19;99042.91;125760;1101;21519;-62
2021/05/17 07:37:25;;;;;;;;;;;;;;;16.16;68.15;99039.28;125736;1096;25951;-62
2021/05/17 07:39:55;;;;;;;2.20;0.30;;;;;;;16.29;67.82;99053.33;125749;1101;21690;-62
2021/05/17 07:42:28;;;;;;;4.30;0.50;;;;;;;16.40;67.20;99055.89;125728;1101;22892;-62
2021/05/17 07:44:59;;;;;;;4.23;0.50;;;;;;;16.51;67.28;99061.27;125630;1101;22761;-62
2021/05/17 07:47:29;;;;;;;5.00;0.40;;;;;;;16.59;67.15;99064.95;125926;1101;22735;-62
2021/05/17 07:50:00;;;;;;;1.43;0.30;;;;;;;16.62;66.60;99075.11;125778;1096;23184;-60
2021/05/17 07:52:30;;;;;;;6.00;0.50;;;;;;;16.64;66.73;99080.19;125773;1096;26639;-62
2021/05/17 07:55:00;;;;;;;2.43;0.50;;;;;;;16.65;66.35;99078.89;126534;1097;29206;-62
2021/05/17 07:57:31;;;;;;;1.53;0.48;;;;;;;16.69;66.38;99073.67;125650;1101;22906;-62
2021/05/17 07:59:59;;;;;;;;;;;;;;;16.73;65.92;99072.03;125715;1096;25849;-62
2021/05/17 08:02:30;;;;;;;2.95;0.60;;;;;;;16.73;65.72;99069.21;125675;1101;21610;-62
2021/05/17 08:04:58;;;;;;;;;;;;;;;16.77;65.58;99069.63;125551;1101;22769;-62
2021/05/17 08:07:30;;;;;;;1.63;0.40;;;;;;;16.81;65.67;99072.09;126046;1102;24173;-62
2021/05/17 08:10:00;;;;;;;3.27;0.50;;;;;;;16.86;65.68;99069.13;126112;1101;22725;-62
2021/05/17 08:12:31;;;;;;;4.15;0.50;;;;;;;16.93;65.08;99074.08;125560;1101;22752;-62
2021/05/17 08:15:01;;;;;;;2.80;0.50;;;;;;;16.98;64.95;99078.84;126045;1096;22800;-62
2021/05/17 08:17:32;;;;;;;1.93;0.35;;;;;;;17.05;64.61;99082.27;125911;1101;22816;-62
2021/05/17 08:20:03;;;;;;;3.63;0.50;;;;;;;17.08;64.13;99084.73;125920;1101;22742;-63
2021/05/17 08:22:34;;;;;;;2.93;0.30;;;;;;;17.13;64.17;99078.20;125787;1097;22753;-63
2021/05/17 08:25:06;;;;;;;3.60;0.60;;;;;;;17.17;63.84;99072.20;125745;1101;22772;-62
2021/05/17 08:27:37;;;;;;;3.80;0.20;;;;;;;17.19;63.33;99072.41;125869;1097;25832;-62
2021/05/17 08:30:10;;;;;;;3.55;0.30;;;;;;;17.20;62.73;99065.45;125624;1101;22748;-63
2021/05/17 08:32:40;;;;;;;2.60;0.40;;;;;;;17.18;62.83;99073.70;125782;1102;23642;-63
2021/05/17 08:35:12;;;;;;;2.07;0.40;;;;;;;17.15;63.15;99078.41;125847;1101;23157;-62
2021/05/17 08:37:42;;;;;;;3.75;0.50;;;;;;;17.11;63.46;99077.97;126020;1101;22734;-62
2021/05/17 08:40:16;;;;;;;3.75;0.58;;;;;;;17.08;62.96;99081.91;125572;1101;22727;-62
2021/05/17 08:42:48;;;;;;;5.10;0.75;;;;;;;17.07;62.95;99069.11;125725;1101;22725;-62
2021/05/17 08:45:19;;;;;;;2.45;0.50;;;;;;;17.12;63.43;99076.67;125705;1096;22971;-62
2021/05/17 08:47:49;;;;;;;5.23;0.60;;;;;;;17.18;63.19;99065.23;125776;1096;25900;-62
2021/05/17 08:50:19;;;;;;;4.80;0.80;;;;;;;17.19;62.85;99070.35;125749;1101;22787;-62
2021/05/17 08:52:50;;;;;;;5.20;0.50;;;;;;;17.22;63.25;99062.83;126023;1101;22978;-62
2021/05/17 08:55:21;;;;;;;3.65;0.50;;;;;;;17.27;62.64;99070.39;125836;1096;26973;-63
2021/05/17 08:57:52;;;;;;;5.75;0.60;;;;;;;17.28;62.31;99060.61;125843;1101;22732;-63
2021/05/17 09:00:24;;;;;;;4.60;0.70;;;;;;;17.24;62.18;99063.79;125916;1101;22815;-62
2021/05/17 09:02:55;;;;;;;4.93;0.50;;;;;;;17.27;62.13;99062.70;125627;1104;24558;-63
2021/05/17 09:05:25;;;;;;;;;;;;;;;17.30;61.75;99063.66;125778;1101;22883;-63
2021/05/17 09:07:59;;;;;;;3.60;0.55;;;;;;;17.27;61.63;99068.34;125759;1101;21461;-63
2021/05/17 09:10:33;;;;;;;6.60;0.65;;;;;;;17.18;61.25;99068.06;125755;1101;22962;-62
2021/05/17 09:13:06;;;;;;;3.70;0.40;;;;;;;17.13;61.55;99066.16;125731;1101;22735;-63
2021/05/17 09:15:40;;;;;;;2.90;0.40;;;;;;;17.15;61.62;99060.72;125813;1101;22803;-63
2021/05/17 09:18:14;;;;;;;1.85;0.30;;;;;;;17.23;60.72;99067.94;126052;1096;28161;-62
2021/05/17 09:20:46;;;;;;;2.40;0.30;;;;;;;17.29;60.90;99064.95;125807;1097;26190;-63
2021/05/17 09:23:19;;;;;;;2.75;0.60;;;;;;;17.32;61.13;99075.88;125807;1097;27272;-63
2021/05/17 09:26:01;;;;;;;3.63;0.60;;;;;;;17.37;61.30;99071.41;125641;1101;24600;-63
2021/05/17 09:28:34;;;;;;;5.10;0.60;;;;;;;17.45;60.82;99077.84;125899;1101;22772;-62
2021/05/17 09:31:06;;;;;;;3.75;0.70;;;;;;;17.53;61.11;99081.50;125742;1096;22869;-62
2021/05/17 09:33:46;;;;;;;4.00;0.70;;;;;;;17.57;60.53;99074.20;125606;1097;22710;-62
2021/05/17 09:36:29;;;;;;;4.00;0.40;;;;;;;17.57;60.38;99076.26;125958;1101;22745;-62
2021/05/17 09:39:06;;;;;;;4.80;0.50;;;;;;;17.49;59.93;99078.25;126117;1101;22751;-62
2021/05/17 09:41:42;;;;;;;3.05;0.40;;;;;;;17.46;60.22;99077.28;125569;1096;22788;-63
2021/05/17 09:44:14;;;;;;;4.35;0.40;;;;;;;17.51;60.00;99081.30;125806;1101;22739;-62
2021/05/17 09:47:06;;;;;;;1.75;0.30;;;;;;;17.57;60.39;99077.02;125602;1096;25915;-61
2021/05/17 09:49:39;;;;;;;4.60;0.40;;;;;;;17.56;59.60;99071.94;125819;1096;22818;-61
2021/05/17 09:52:15;;;;;;;3.20;0.45;;;;;;;17.51;59.53;99070.02;125772;1096;22745;-62
2021/05/17 09:54:59;;;;;;;2.55;0.30;;;;;;;17.48;59.41;99074.70;125623;1096;25954;-62
2021/05/17 09:57:32;;;;;;;2.50;0.40;;;;;;;17.44;59.32;99070.71;125893;1101;24274;-62
2021/05/17 10:00:13;;;;;;;4.30;0.45;;;;;;;17.39;59.31;99072.37;125817;1101;22752;-62
2021/05/17 10:02:45;;;;;;;3.35;0.50;;;;;;;17.37;59.77;99063.70;125753;1101;22728;-63
2021/05/17 10:05:24;;;;;;;2.60;0.30;;;;;;;17.43;59.70;99066.36;125752;1101;22787;-63
2021/05/17 10:07:56;;;;;;;2.63;0.23;;;;;;;17.43;59.15;99069.19;125964;1101;22889;-63
2021/05/17 10:10:28;;;;;;;1.63;0.20;;;;;;;17.43;58.99;99067.13;125921;1096;22748;-63
2021/05/17 10:13:00;;;;;;;3.10;0.30;;;;;;;17.46;58.69;99070.91;125745;1096;27596;-62
2021/05/17 10:15:33;;;;;;;1.85;0.30;;;;;;;17.44;57.83;99077.09;125777;1096;26212;-61
2021/05/17 10:18:05;;;;;;;4.93;0.47;;;;;;;17.42;58.51;99074.06;125983;1097;23118;-62
2021/05/17 10:20:39;;;;;;;1.35;0.20;;;;;;;17.41;57.84;99069.75;125846;1101;22706;-62
2021/05/17 10:23:12;;;;;;;6.80;0.40;;;;;;;17.43;57.71;99069.19;125864;1101;24401;-62
2021/05/17 10:25:44;;;;;;;3.75;0.35;;;;;;;17.46;58.34;99071.64;125693;1101;22951;-63
2021/05/17 10:28:20;;;;;;;3.05;0.20;;;;;;;17.50;57.35;99066.45;125950;1101;22787;-62
2021/05/17 10:30:51;;;;;;;2.15;0.20;;;;;;;17.49;56.94;99069.78;125740;1096;23529;-62
2021/05/17 10:33:26;;;;;;;6.15;0.30;;;;;;;17.48;56.76;99063.41;125677;1097;22775;-63
2021/05/17 10:35:56;;;;;;;1.60;0.10;;;;;;;17.46;56.82;99060.36;125548;1096;27109;-61
2021/05/17 10:38:27;;;;;;;;;;;;;;;17.46;56.32;99068.09;125913;1097;28769;-62
2021/05/17 10:41:19;;;;;;;2.00;0.20;;;;;;;17.45;56.38;99058.09;125908;1101;24172;-61
2021/05/17 10:43:59;;;;;;;1.65;0.20;;;;;;;17.49;56.50;99062.11;125741;1096;26873;-62
2021/05/17 10:46:39;;;;;;;4.53;0.40;;;;;;;17.53;56.70;99058.92;125968;1096;26206;-62
2021/05/17 10:49:28;;;;;;;1.80;0.30;;;;;;;17.58;56.00;99066.49;126002;1101;22866;-62
2021/05/17 10:52:25;;;;;;;7.60;0.80;;;;;;;17.55;56.17;99071.17;125696;1101;22806;-62
2021/05/17 10:55:07;;;;;;;4.40;0.50;;;;;;;17.56;55.95;99060.66;125887;1096;22739;-62
2021/05/17 10:58:05;;;;;;;1.85;0.20;;;;;;;17.56;55.84;99063.47;125913;1101;22727;-62
2021/05/17 11:00:38;;;;;;;1.70;0.40;;;;;;;17.62;55.78;99069.72;125873;1097;25832;-62
2021/05/17 11:03:12;;;;;;;1.40;0.20;;;;;;;17.66;55.69;99065.23;126631;1101;23446;-61
2021/05/17 11:05:44;;;;;;;3.20;0.35;;;;;;;17.69;55.73;99071.84;125730;1101;22817;-61
2021/05/17 11:08:16;;;;;;;3.40;0.40;;;;;;;17.72;55.47;99068.64;125606;1101;22882;-62
2021/05/17 11:10:52;;;;;;;3.55;0.35;;;;;;;17.73;55.85;99063.77;125758;1096;25903;-62
2021/05/17 11:13:24;;;;;;;2.90;0.40;;;;;;;17.78;55.50;99060.02;125975;1096;27620;-63
2021/05/17 11:16:03;;;;;;;1.30;0.30;;;;;;;17.77;55.34;99064.16;125906;1097;26878;-63
2021/05/17 11:18:48;;;;;;;3.40;0.30;;;;;;;17.81;55.24;99075.09;125827;1096;22734;-63
2021/05/17 11:21:27;;;;;;;4.10;0.30;;;;;;;17.81;55.27;99064.55;125907;1101;22852;-63
2021/05/17 11:24:06;;;;;;;3.30;0.40;;;;;;;17.72;54.57;99071.47;125813;1096;22743;-63
2021/05/17 11:26:54;;;;;;;4.10;0.40;;;;;;;17.59;54.58;99071.58;125748;1102;22942;-62
2021/05/17 11:29:36;;;;;;;8.70;0.50;;;;;;;17.49;54.95;99073.40;125828;1101;22770;-62
2021/05/17 11:32:16;;;;;;;2.85;0.50;;;;;;;17.38;54.95;99081.39;125736;1101;22803;-62
2021/05/17 11:35:12;;;;;;;4.03;0.67;;;;;;;17.31;55.59;99074.38;125798;1101;22910;-62
2021/05/17 11:38:08;;;;;;;3.75;0.50;;;;;;;17.22;56.52;99077.69;125823;1101;24430;-62
2021/05/17 11:40:51;;;;;;;3.10;0.50;;;;;;;17.14;56.29;99074.06;125611;1096;22790;-62
2021/05/17 11:43:23;;;;;;;3.75;0.50;;;;;;;17.07;56.49;99079.65;125801;1101;22765;-62
2021/05/17 11:45:54;;;;;;;5.55;0.60;;;;;;;17.02;57.17;99072.84;125862;1096;22752;-62
2021/05/17 11:48:29;;;;;;;2.35;0.40;;;;;;;17.01;56.73;99079.77;125738;1096;27552;-62
2021/05/17 11:50:59;;;;;;;4.90;0.70;;;;;;;16.95;56.48;99085.56;125724;1101;22808;-62
2021/05/17 11:53:30;;;;;;;9.38;0.65;;;;;;;16.90;57.17;99077.98;125612;1101;25374;-62
2021/05/17 11:56:05;;;;;;;4.70;0.55;;;;;;;16.80;56.64;99091.05;125783;1101;22753;-63
2021/05/17 11:58:38;;;;;;;3.35;0.60;;;;;;;16.73;57.22;99076.90;125869;1101;22816;-62
2021/05/17 12:01:19;;;;;;;5.80;0.60;;;;;;;16.70;57.06;99075.93;125751;1101;22805;-62
2021/05/17 12:03:49;;;;;;;4.70;0.60;;;;;;;16.71;57.05;99079.52;125598;1101;22722;-62